sensor_id;sensor_type;location;lat;lon;timestamp;pressure;altitude;pressure_sealevel;temperature;humidity
76337;BME280;65157;50.082;18.178;2023-06-22T00:00:19;99371.55;;;20.32;79.46
76337;BME280;65157;50.082;18.178;2023-06-22T00:03:06;99376.49;;;20.31;79.40
76337;BME280;65157;50.082;18.178;2023-06-22T00:05:33;99382.95;;;20.31;79.38
76337;BME280;65157;50.082;18.178;2023-06-22T00:08:02;99392.75;;;20.29;79.32
76337;BME280;65157;50.082;18.178;2023-06-22T00:10:29;99393.98;;;20.27;79.39
76337;BME280;65157;50.082;18.178;2023-06-22T00:12:56;99392.77;;;20.24;79.29
76337;BME280;65157;50.082;18.178;2023-06-22T00:15:23;99396.95;;;20.23;79.31
76337;BME280;65157;50.082;18.178;2023-06-22T00:17:50;99398.04;;;20.23;79.33
76337;BME280;65157;50.082;18.178;2023-06-22T00:20:17;99397.48;;;20.23;79.29
76337;BME280;65157;50.082;18.178;2023-06-22T00:22:44;99398.11;;;20.22;79.33
76337;BME280;65157;50.082;18.178;2023-06-22T00:25:11;99397.82;;;20.21;79.26
76337;BME280;65157;50.082;18.178;2023-06-22T00:27:38;99391.48;;;20.20;79.19
76337;BME280;65157;50.082;18.178;2023-06-22T00:30:05;99384.69;;;20.11;79.28
76337;BME280;65157;50.082;18.178;2023-06-22T00:32:31;99400.07;;;20.13;79.27
76337;BME280;65157;50.082;18.178;2023-06-22T00:34:58;99398.34;;;20.13;79.40
76337;BME280;65157;50.082;18.178;2023-06-22T00:37:25;99397.76;;;20.11;79.58
76337;BME280;65157;50.082;18.178;2023-06-22T00:39:51;99396.78;;;20.10;79.57
76337;BME280;65157;50.082;18.178;2023-06-22T00:42:20;99398.14;;;20.08;79.55
76337;BME280;65157;50.082;18.178;2023-06-22T00:44:47;99400.10;;;20.08;79.41
76337;BME280;65157;50.082;18.178;2023-06-22T00:47:16;99394.19;;;20.08;79.41
76337;BME280;65157;50.082;18.178;2023-06-22T00:49:44;99387.65;;;20.07;79.42
76337;BME280;65157;50.082;18.178;2023-06-22T00:52:11;99383.95;;;20.06;79.37
76337;BME280;65157;50.082;18.178;2023-06-22T00:54:37;99381.46;;;20.04;79.51
76337;BME280;65157;50.082;18.178;2023-06-22T00:57:04;99383.52;;;20.03;79.48
76337;BME280;65157;50.082;18.178;2023-06-22T00:59:31;99381.94;;;20.02;79.50
76337;BME280;65157;50.082;18.178;2023-06-22T01:01:58;99371.38;;;19.98;79.52
76337;BME280;65157;50.082;18.178;2023-06-22T01:04:34;99385.27;;;20.01;79.38
76337;BME280;65157;50.082;18.178;2023-06-22T01:07:13;99388.86;;;20.01;79.41
76337;BME280;65157;50.082;18.178;2023-06-22T01:10:08;99385.74;;;20.00;79.62
76337;BME280;65157;50.082;18.178;2023-06-22T01:12:42;99390.95;;;19.95;79.65
76337;BME280;65157;50.082;18.178;2023-06-22T01:15:18;99385.81;;;19.92;79.58
76337;BME280;65157;50.082;18.178;2023-06-22T01:17:48;99389.52;;;19.88;79.62
76337;BME280;65157;50.082;18.178;2023-06-22T01:20:16;99390.20;;;19.87;79.76
76337;BME280;65157;50.082;18.178;2023-06-22T01:25:46;99383.98;;;19.81;79.86
76337;BME280;65157;50.082;18.178;2023-06-22T01:28:49;99383.66;;;19.79;79.89
76337;BME280;65157;50.082;18.178;2023-06-22T01:31:19;99379.30;;;19.74;80.05
76337;BME280;65157;50.082;18.178;2023-06-22T01:33:51;99368.79;;;19.69;80.06
76337;BME280;65157;50.082;18.178;2023-06-22T01:36:20;99378.48;;;19.71;80.05
76337;BME280;65157;50.082;18.178;2023-06-22T01:38:48;99380.73;;;19.70;80.09
76337;BME280;65157;50.082;18.178;2023-06-22T01:41:16;99381.71;;;19.69;80.35
76337;BME280;65157;50.082;18.178;2023-06-22T01:43:45;99385.19;;;19.68;80.27
76337;BME280;65157;50.082;18.178;2023-06-22T01:46:11;99390.15;;;19.66;80.06
76337;BME280;65157;50.082;18.178;2023-06-22T01:48:39;99393.91;;;19.66;80.10
76337;BME280;65157;50.082;18.178;2023-06-22T01:51:06;99395.26;;;19.65;80.19
76337;BME280;65157;50.082;18.178;2023-06-22T01:53:33;99402.60;;;19.63;80.27
76337;BME280;65157;50.082;18.178;2023-06-22T01:56:01;99410.94;;;19.61;80.18
76337;BME280;65157;50.082;18.178;2023-06-22T01:58:29;99412.54;;;19.60;80.28
76337;BME280;65157;50.082;18.178;2023-06-22T02:01:09;99411.52;;;19.59;80.11
76337;BME280;65157;50.082;18.178;2023-06-22T02:03:54;99414.56;;;19.59;80.12
76337;BME280;65157;50.082;18.178;2023-06-22T02:06:27;99413.98;;;19.57;80.39
76337;BME280;65157;50.082;18.178;2023-06-22T02:08:59;99413.77;;;19.55;80.34
76337;BME280;65157;50.082;18.178;2023-06-22T02:11:28;99417.55;;;19.52;80.44
76337;BME280;65157;50.082;18.178;2023-06-22T02:13:57;99427.24;;;19.50;80.43
76337;BME280;65157;50.082;18.178;2023-06-22T02:16:25;99428.80;;;19.48;80.54
76337;BME280;65157;50.082;18.178;2023-06-22T02:18:52;99429.77;;;19.47;80.32
76337;BME280;65157;50.082;18.178;2023-06-22T02:21:19;99430.33;;;19.47;80.31
76337;BME280;65157;50.082;18.178;2023-06-22T02:23:47;99429.21;;;19.45;80.22
76337;BME280;65157;50.082;18.178;2023-06-22T02:26:16;99426.11;;;19.44;80.33
76337;BME280;65157;50.082;18.178;2023-06-22T02:28:44;99426.77;;;19.42;80.37
76337;BME280;65157;50.082;18.178;2023-06-22T02:31:11;99430.83;;;19.40;80.39
76337;BME280;65157;50.082;18.178;2023-06-22T02:33:37;99437.19;;;19.39;80.38
76337;BME280;65157;50.082;18.178;2023-06-22T02:36:04;99441.17;;;19.38;80.28
76337;BME280;65157;50.082;18.178;2023-06-22T02:38:31;99451.85;;;19.37;80.34
76337;BME280;65157;50.082;18.178;2023-06-22T02:40:58;99450.34;;;19.33;80.40
76337;BME280;65157;50.082;18.178;2023-06-22T02:43:25;99461.89;;;19.34;80.35
76337;BME280;65157;50.082;18.178;2023-06-22T02:45:52;99465.80;;;19.32;80.32
76337;BME280;65157;50.082;18.178;2023-06-22T02:48:19;99459.15;;;19.30;80.44
76337;BME280;65157;50.082;18.178;2023-06-22T02:50:46;99462.02;;;19.30;80.35
76337;BME280;65157;50.082;18.178;2023-06-22T02:53:12;99454.89;;;19.30;80.57
76337;BME280;65157;50.082;18.178;2023-06-22T02:55:39;99457.84;;;19.29;80.70
76337;BME280;65157;50.082;18.178;2023-06-22T02:58:05;99458.73;;;19.26;80.92
76337;BME280;65157;50.082;18.178;2023-06-22T03:00:32;99459.50;;;19.25;80.78
76337;BME280;65157;50.082;18.178;2023-06-22T03:02:58;99464.45;;;19.24;80.91
76337;BME280;65157;50.082;18.178;2023-06-22T03:05:25;99456.36;;;19.20;80.81
76337;BME280;65157;50.082;18.178;2023-06-22T03:07:52;99448.60;;;19.21;80.93
76337;BME280;65157;50.082;18.178;2023-06-22T03:10:18;99458.58;;;19.24;81.01
76337;BME280;65157;50.082;18.178;2023-06-22T03:12:46;99461.80;;;19.21;81.20
76337;BME280;65157;50.082;18.178;2023-06-22T03:15:12;99465.17;;;19.19;81.14
76337;BME280;65157;50.082;18.178;2023-06-22T03:17:40;99468.17;;;19.19;81.10
76337;BME280;65157;50.082;18.178;2023-06-22T03:20:07;99473.83;;;19.21;81.18
76337;BME280;65157;50.082;18.178;2023-06-22T03:22:35;99472.24;;;19.20;81.39
76337;BME280;65157;50.082;18.178;2023-06-22T03:25:02;99469.09;;;19.17;81.26
76337;BME280;65157;50.082;18.178;2023-06-22T03:27:29;99475.08;;;19.23;81.17
76337;BME280;65157;50.082;18.178;2023-06-22T03:29:57;99463.96;;;19.16;81.15
76337;BME280;65157;50.082;18.178;2023-06-22T03:32:23;99476.88;;;19.28;81.36
76337;BME280;65157;50.082;18.178;2023-06-22T03:34:50;99473.09;;;19.28;81.57
76337;BME280;65157;50.082;18.178;2023-06-22T03:37:17;99466.02;;;19.29;81.56
76337;BME280;65157;50.082;18.178;2023-06-22T03:39:43;99463.00;;;19.31;81.54
76337;BME280;65157;50.082;18.178;2023-06-22T03:42:10;99465.67;;;19.34;81.69
76337;BME280;65157;50.082;18.178;2023-06-22T03:44:37;99463.09;;;19.37;81.62
76337;BME280;65157;50.082;18.178;2023-06-22T03:47:04;99460.73;;;19.40;81.61
76337;BME280;65157;50.082;18.178;2023-06-22T03:49:30;99461.95;;;19.43;81.64
76337;BME280;65157;50.082;18.178;2023-06-22T03:51:57;99460.73;;;19.45;81.81
76337;BME280;65157;50.082;18.178;2023-06-22T03:54:24;99459.42;;;19.48;81.55
76337;BME280;65157;50.082;18.178;2023-06-22T03:56:50;99463.00;;;19.53;81.33
76337;BME280;65157;50.082;18.178;2023-06-22T03:59:17;99470.00;;;19.57;81.54
76337;BME280;65157;50.082;18.178;2023-06-22T04:01:46;99475.36;;;19.62;81.18
76337;BME280;65157;50.082;18.178;2023-06-22T04:04:13;99476.97;;;19.67;80.87
76337;BME280;65157;50.082;18.178;2023-06-22T04:06:39;99485.98;;;19.71;81.38
76337;BME280;65157;50.082;18.178;2023-06-22T04:09:06;99488.66;;;19.76;81.44
76337;BME280;65157;50.082;18.178;2023-06-22T04:11:32;99491.05;;;19.80;81.59
76337;BME280;65157;50.082;18.178;2023-06-22T04:13:59;99494.80;;;19.87;81.99
76337;BME280;65157;50.082;18.178;2023-06-22T04:16:26;99494.75;;;19.92;81.75
76337;BME280;65157;50.082;18.178;2023-06-22T04:18:53;99495.70;;;19.98;81.75
76337;BME280;65157;50.082;18.178;2023-06-22T04:21:19;99505.89;;;20.03;81.44
76337;BME280;65157;50.082;18.178;2023-06-22T04:23:46;99507.63;;;20.08;81.05
76337;BME280;65157;50.082;18.178;2023-06-22T04:26:13;99515.58;;;20.14;81.31
76337;BME280;65157;50.082;18.178;2023-06-22T04:28:41;99518.86;;;20.21;81.27
76337;BME280;65157;50.082;18.178;2023-06-22T04:31:07;99516.66;;;20.26;81.38
76337;BME280;65157;50.082;18.178;2023-06-22T04:33:34;99510.96;;;20.28;81.29
76337;BME280;65157;50.082;18.178;2023-06-22T04:36:01;99519.11;;;20.39;81.01
76337;BME280;65157;50.082;18.178;2023-06-22T04:38:27;99522.03;;;20.45;80.80
76337;BME280;65157;50.082;18.178;2023-06-22T04:40:54;99523.30;;;20.51;80.61
76337;BME280;65157;50.082;18.178;2023-06-22T04:43:20;99526.94;;;20.57;81.13
76337;BME280;65157;50.082;18.178;2023-06-22T04:45:47;99526.29;;;20.63;81.31
76337;BME280;65157;50.082;18.178;2023-06-22T04:48:14;99529.26;;;20.69;81.35
76337;BME280;65157;50.082;18.178;2023-06-22T04:50:41;99529.77;;;20.74;81.50
76337;BME280;65157;50.082;18.178;2023-06-22T04:53:08;99526.88;;;20.78;81.48
76337;BME280;65157;50.082;18.178;2023-06-22T04:55:35;99522.73;;;20.83;81.72
76337;BME280;65157;50.082;18.178;2023-06-22T04:58:02;99521.39;;;20.87;81.80
76337;BME280;65157;50.082;18.178;2023-06-22T05:00:28;99526.90;;;20.90;81.70
76337;BME280;65157;50.082;18.178;2023-06-22T05:02:55;99528.94;;;20.91;81.84
76337;BME280;65157;50.082;18.178;2023-06-22T05:05:22;99526.17;;;20.92;81.65
76337;BME280;65157;50.082;18.178;2023-06-22T05:07:50;99527.10;;;21.02;81.68
76337;BME280;65157;50.082;18.178;2023-06-22T05:10:17;99526.76;;;21.13;81.40
76337;BME280;65157;50.082;18.178;2023-06-22T05:12:46;99532.92;;;21.26;81.62
76337;BME280;65157;50.082;18.178;2023-06-22T05:15:13;99528.95;;;21.33;81.56
76337;BME280;65157;50.082;18.178;2023-06-22T05:17:40;99534.98;;;21.49;81.50
76337;BME280;65157;50.082;18.178;2023-06-22T05:20:07;99533.67;;;21.62;81.28
76337;BME280;65157;50.082;18.178;2023-06-22T05:22:34;99527.27;;;21.74;81.14
76337;BME280;65157;50.082;18.178;2023-06-22T05:25:01;99524.59;;;21.87;80.80
76337;BME280;65157;50.082;18.178;2023-06-22T05:27:27;99527.58;;;22.03;80.85
76337;BME280;65157;50.082;18.178;2023-06-22T05:29:54;99527.23;;;22.17;80.51
76337;BME280;65157;50.082;18.178;2023-06-22T05:32:21;99515.99;;;22.22;80.36
76337;BME280;65157;50.082;18.178;2023-06-22T05:34:48;99521.89;;;22.41;80.10
76337;BME280;65157;50.082;18.178;2023-06-22T05:37:14;99526.23;;;22.57;79.75
76337;BME280;65157;50.082;18.178;2023-06-22T05:39:41;99526.39;;;22.71;79.23
76337;BME280;65157;50.082;18.178;2023-06-22T05:42:08;99530.40;;;22.84;78.92
76337;BME280;65157;50.082;18.178;2023-06-22T05:44:34;99531.06;;;22.97;78.86
76337;BME280;65157;50.082;18.178;2023-06-22T05:47:01;99530.81;;;23.10;78.68
76337;BME280;65157;50.082;18.178;2023-06-22T05:49:30;99526.77;;;23.21;78.55
76337;BME280;65157;50.082;18.178;2023-06-22T05:51:57;99529.89;;;23.36;77.80
76337;BME280;65157;50.082;18.178;2023-06-22T05:54:23;99531.83;;;23.44;77.36
76337;BME280;65157;50.082;18.178;2023-06-22T05:56:50;99533.39;;;23.55;76.96
76337;BME280;65157;50.082;18.178;2023-06-22T05:59:17;99524.23;;;23.64;76.97
76337;BME280;65157;50.082;18.178;2023-06-22T06:01:43;99527.95;;;23.81;76.78
76337;BME280;65157;50.082;18.178;2023-06-22T06:04:10;99526.96;;;23.93;76.06
76337;BME280;65157;50.082;18.178;2023-06-22T06:06:37;99527.00;;;24.06;75.63
76337;BME280;65157;50.082;18.178;2023-06-22T06:09:04;99529.48;;;24.20;75.53
76337;BME280;65157;50.082;18.178;2023-06-22T06:11:31;99532.77;;;24.31;75.22
76337;BME280;65157;50.082;18.178;2023-06-22T06:13:57;99540.38;;;24.44;74.87
76337;BME280;65157;50.082;18.178;2023-06-22T06:16:24;99544.20;;;24.57;74.65
76337;BME280;65157;50.082;18.178;2023-06-22T06:18:51;99536.92;;;24.65;74.59
76337;BME280;65157;50.082;18.178;2023-06-22T06:21:17;99536.86;;;24.77;74.14
76337;BME280;65157;50.082;18.178;2023-06-22T06:23:44;99543.20;;;24.92;73.68
76337;BME280;65157;50.082;18.178;2023-06-22T06:26:11;99548.17;;;25.04;73.23
76337;BME280;65157;50.082;18.178;2023-06-22T06:28:38;99551.46;;;25.16;72.84
76337;BME280;65157;50.082;18.178;2023-06-22T06:31:04;99546.02;;;25.29;72.49
76337;BME280;65157;50.082;18.178;2023-06-22T06:33:31;99547.20;;;25.45;71.79
76337;BME280;65157;50.082;18.178;2023-06-22T06:35:58;99545.45;;;25.59;71.62
76337;BME280;65157;50.082;18.178;2023-06-22T06:38:24;99546.08;;;25.69;70.87
76337;BME280;65157;50.082;18.178;2023-06-22T06:40:51;99549.30;;;25.76;69.76
76337;BME280;65157;50.082;18.178;2023-06-22T06:43:17;99547.25;;;25.87;70.15
76337;BME280;65157;50.082;18.178;2023-06-22T06:45:44;99546.23;;;26.03;69.93
76337;BME280;65157;50.082;18.178;2023-06-22T06:48:11;99547.64;;;26.18;69.84
76337;BME280;65157;50.082;18.178;2023-06-22T06:50:38;99552.47;;;26.30;68.93
76337;BME280;65157;50.082;18.178;2023-06-22T06:53:04;99543.77;;;26.36;69.01
76337;BME280;65157;50.082;18.178;2023-06-22T06:55:31;99548.05;;;26.50;68.23
76337;BME280;65157;50.082;18.178;2023-06-22T06:57:57;99548.60;;;26.61;67.98
76337;BME280;65157;50.082;18.178;2023-06-22T07:00:24;99544.53;;;26.70;67.56
76337;BME280;65157;50.082;18.178;2023-06-22T07:02:51;99547.73;;;26.83;66.52
76337;BME280;65157;50.082;18.178;2023-06-22T07:05:18;99548.86;;;26.82;66.18
76337;BME280;65157;50.082;18.178;2023-06-22T07:07:44;99543.83;;;26.77;66.27
76337;BME280;65157;50.082;18.178;2023-06-22T07:10:11;99544.82;;;26.76;66.23
76337;BME280;65157;50.082;18.178;2023-06-22T07:12:38;99546.27;;;26.69;66.43
76337;BME280;65157;50.082;18.178;2023-06-22T07:15:06;99549.20;;;26.64;66.16
76337;BME280;65157;50.082;18.178;2023-06-22T07:17:34;99547.02;;;26.52;65.61
76337;BME280;65157;50.082;18.178;2023-06-22T07:20:01;99550.21;;;26.54;66.09
76337;BME280;65157;50.082;18.178;2023-06-22T07:22:28;99553.91;;;26.65;66.17
76337;BME280;65157;50.082;18.178;2023-06-22T07:24:55;99553.16;;;26.71;65.68
76337;BME280;65157;50.082;18.178;2023-06-22T07:27:21;99546.17;;;26.61;65.13
76337;BME280;65157;50.082;18.178;2023-06-22T07:29:48;99559.44;;;26.70;65.41
76337;BME280;65157;50.082;18.178;2023-06-22T07:32:14;99562.29;;;26.74;65.13
76337;BME280;65157;50.082;18.178;2023-06-22T07:34:41;99563.56;;;26.82;63.59
76337;BME280;65157;50.082;18.178;2023-06-22T07:37:08;99559.56;;;26.84;63.32
76337;BME280;65157;50.082;18.178;2023-06-22T07:39:34;99561.64;;;26.97;63.50
76337;BME280;65157;50.082;18.178;2023-06-22T07:42:01;99564.93;;;27.12;64.15
76337;BME280;65157;50.082;18.178;2023-06-22T07:44:28;99567.73;;;27.20;64.17
76337;BME280;65157;50.082;18.178;2023-06-22T07:46:55;99572.95;;;27.35;63.68
76337;BME280;65157;50.082;18.178;2023-06-22T07:49:22;99566.02;;;27.55;63.31
76337;BME280;65157;50.082;18.178;2023-06-22T07:51:48;99566.62;;;27.76;63.41
76337;BME280;65157;50.082;18.178;2023-06-22T07:54:15;99567.45;;;27.91;62.95
76337;BME280;65157;50.082;18.178;2023-06-22T07:56:41;99571.70;;;28.02;62.35
76337;BME280;65157;50.082;18.178;2023-06-22T07:59:08;99568.63;;;28.20;61.82
76337;BME280;65157;50.082;18.178;2023-06-22T08:01:35;99577.08;;;28.36;61.04
76337;BME280;65157;50.082;18.178;2023-06-22T08:04:02;99573.77;;;28.49;60.64
76337;BME280;65157;50.082;18.178;2023-06-22T08:06:30;99583.97;;;28.62;60.09
76337;BME280;65157;50.082;18.178;2023-06-22T08:08:57;99584.70;;;28.72;59.47
76337;BME280;65157;50.082;18.178;2023-06-22T08:11:26;99577.61;;;28.76;59.46
76337;BME280;65157;50.082;18.178;2023-06-22T08:13:53;99583.91;;;28.67;58.67
76337;BME280;65157;50.082;18.178;2023-06-22T08:16:20;99582.05;;;28.46;59.14
76337;BME280;65157;50.082;18.178;2023-06-22T08:18:46;99583.83;;;28.40;59.37
76337;BME280;65157;50.082;18.178;2023-06-22T08:21:13;99582.29;;;28.49;58.93
76337;BME280;65157;50.082;18.178;2023-06-22T08:23:40;99585.98;;;28.62;59.64
76337;BME280;65157;50.082;18.178;2023-06-22T08:26:06;99579.92;;;28.85;59.40
76337;BME280;65157;50.082;18.178;2023-06-22T08:28:33;99583.55;;;29.04;58.03
76337;BME280;65157;50.082;18.178;2023-06-22T08:31:01;99582.75;;;29.12;57.28
76337;BME280;65157;50.082;18.178;2023-06-22T08:33:28;99581.96;;;29.24;58.15
76337;BME280;65157;50.082;18.178;2023-06-22T08:35:55;99583.55;;;29.36;56.67
76337;BME280;65157;50.082;18.178;2023-06-22T08:38:22;99577.09;;;29.46;57.82
76337;BME280;65157;50.082;18.178;2023-06-22T08:40:48;99575.11;;;29.67;57.39
76337;BME280;65157;50.082;18.178;2023-06-22T08:43:15;99570.83;;;29.87;56.91
76337;BME280;65157;50.082;18.178;2023-06-22T08:45:42;99562.02;;;30.03;56.38
76337;BME280;65157;50.082;18.178;2023-06-22T08:48:08;99557.94;;;30.12;54.61
76337;BME280;65157;50.082;18.178;2023-06-22T08:50:35;99562.27;;;30.16;55.46
76337;BME280;65157;50.082;18.178;2023-06-22T08:53:02;99565.16;;;30.25;54.53
76337;BME280;65157;50.082;18.178;2023-06-22T08:55:29;99569.89;;;30.33;54.57
76337;BME280;65157;50.082;18.178;2023-06-22T08:57:55;99572.59;;;30.39;54.27
76337;BME280;65157;50.082;18.178;2023-06-22T09:00:22;99568.98;;;30.44;53.10
76337;BME280;65157;50.082;18.178;2023-06-22T09:02:49;99564.73;;;30.33;53.11
76337;BME280;65157;50.082;18.178;2023-06-22T09:05:16;99561.40;;;30.31;52.61
76337;BME280;65157;50.082;18.178;2023-06-22T09:07:42;99557.76;;;30.29;53.98
76337;BME280;65157;50.082;18.178;2023-06-22T09:10:09;99553.71;;;30.36;53.94
76337;BME280;65157;50.082;18.178;2023-06-22T09:12:36;99552.08;;;30.48;53.05
76337;BME280;65157;50.082;18.178;2023-06-22T09:15:03;99542.30;;;30.44;51.96
76337;BME280;65157;50.082;18.178;2023-06-22T09:17:30;99539.39;;;30.40;52.60
76337;BME280;65157;50.082;18.178;2023-06-22T09:19:57;99540.56;;;30.51;52.87
76337;BME280;65157;50.082;18.178;2023-06-22T09:22:23;99540.12;;;30.65;53.24
76337;BME280;65157;50.082;18.178;2023-06-22T09:24:50;99531.77;;;30.80;52.63
76337;BME280;65157;50.082;18.178;2023-06-22T09:27:17;99531.15;;;31.00;52.77
76337;BME280;65157;50.082;18.178;2023-06-22T09:29:43;99527.15;;;31.14;51.57
76337;BME280;65157;50.082;18.178;2023-06-22T09:32:11;99524.27;;;31.24;52.00
76337;BME280;65157;50.082;18.178;2023-06-22T09:34:38;99513.17;;;31.25;51.65
76337;BME280;65157;50.082;18.178;2023-06-22T09:37:05;99518.59;;;31.44;51.60
76337;BME280;65157;50.082;18.178;2023-06-22T09:39:31;99514.63;;;31.58;51.42
76337;BME280;65157;50.082;18.178;2023-06-22T09:41:59;99513.04;;;31.73;50.91
76337;BME280;65157;50.082;18.178;2023-06-22T09:44:26;99514.97;;;31.83;49.46
76337;BME280;65157;50.082;18.178;2023-06-22T09:46:52;99516.37;;;31.77;49.29
76337;BME280;65157;50.082;18.178;2023-06-22T09:49:19;99516.71;;;31.83;49.72
76337;BME280;65157;50.082;18.178;2023-06-22T09:51:46;99519.58;;;31.89;48.76
76337;BME280;65157;50.082;18.178;2023-06-22T09:54:12;99521.71;;;31.91;48.73
76337;BME280;65157;50.082;18.178;2023-06-22T09:56:39;99514.58;;;31.97;49.25
76337;BME280;65157;50.082;18.178;2023-06-22T09:59:06;99522.48;;;32.04;47.82
76337;BME280;65157;50.082;18.178;2023-06-22T10:01:33;99520.69;;;31.97;46.74
76337;BME280;65157;50.082;18.178;2023-06-22T10:04:02;99519.55;;;31.79;47.97
76337;BME280;65157;50.082;18.178;2023-06-22T10:06:29;99515.95;;;31.78;47.96
76337;BME280;65157;50.082;18.178;2023-06-22T10:08:55;99513.67;;;31.92;48.00
76337;BME280;65157;50.082;18.178;2023-06-22T10:11:22;99510.66;;;32.08;48.34
76337;BME280;65157;50.082;18.178;2023-06-22T10:13:48;99511.92;;;32.24;48.09
76337;BME280;65157;50.082;18.178;2023-06-22T10:16:15;99507.66;;;32.42;47.53
76337;BME280;65157;50.082;18.178;2023-06-22T10:18:42;99505.13;;;32.47;45.10
76337;BME280;65157;50.082;18.178;2023-06-22T10:21:09;99503.02;;;32.47;46.57
76337;BME280;65157;50.082;18.178;2023-06-22T10:23:37;99496.67;;;32.54;46.21
76337;BME280;65157;50.082;18.178;2023-06-22T10:26:04;99490.30;;;32.57;46.05
76337;BME280;65157;50.082;18.178;2023-06-22T10:28:30;99494.38;;;32.58;46.23
76337;BME280;65157;50.082;18.178;2023-06-22T10:30:57;99497.30;;;32.61;46.98
76337;BME280;65157;50.082;18.178;2023-06-22T10:33:24;99496.61;;;32.66;45.79
76337;BME280;65157;50.082;18.178;2023-06-22T10:35:50;99496.75;;;32.60;45.96
76337;BME280;65157;50.082;18.178;2023-06-22T10:38:17;99495.95;;;32.69;46.93
76337;BME280;65157;50.082;18.178;2023-06-22T10:40:44;99492.09;;;32.82;45.86
76337;BME280;65157;50.082;18.178;2023-06-22T10:43:10;99494.20;;;32.88;45.49
76337;BME280;65157;50.082;18.178;2023-06-22T10:45:37;99485.16;;;32.92;44.38
76337;BME280;65157;50.082;18.178;2023-06-22T10:48:04;99489.57;;;32.96;45.44
76337;BME280;65157;50.082;18.178;2023-06-22T10:50:31;99486.73;;;33.12;45.97
76337;BME280;65157;50.082;18.178;2023-06-22T10:52:57;99486.00;;;33.24;44.06
76337;BME280;65157;50.082;18.178;2023-06-22T10:55:24;99481.13;;;33.21;43.79
76337;BME280;65157;50.082;18.178;2023-06-22T10:57:51;99479.65;;;33.21;44.65
76337;BME280;65157;50.082;18.178;2023-06-22T11:00:17;99472.04;;;33.17;43.70
76337;BME280;65157;50.082;18.178;2023-06-22T11:02:44;99484.48;;;33.25;44.95
76337;BME280;65157;50.082;18.178;2023-06-22T11:05:11;99481.63;;;33.30;44.16
76337;BME280;65157;50.082;18.178;2023-06-22T11:07:41;99479.13;;;33.34;43.68
76337;BME280;65157;50.082;18.178;2023-06-22T11:10:08;99480.20;;;33.39;43.94
76337;BME280;65157;50.082;18.178;2023-06-22T11:12:35;99470.88;;;33.43;43.04
76337;BME280;65157;50.082;18.178;2023-06-22T11:15:02;99466.90;;;33.38;43.45
76337;BME280;65157;50.082;18.178;2023-06-22T11:17:29;99465.85;;;33.34;42.15
76337;BME280;65157;50.082;18.178;2023-06-22T11:19:55;99467.16;;;33.23;42.72
76337;BME280;65157;50.082;18.178;2023-06-22T11:22:22;99457.29;;;33.08;43.09
76337;BME280;65157;50.082;18.178;2023-06-22T11:24:49;99461.05;;;32.98;43.14
76337;BME280;65157;50.082;18.178;2023-06-22T11:27:15;99462.77;;;32.95;42.60
76337;BME280;65157;50.082;18.178;2023-06-22T11:29:42;99462.23;;;32.91;43.64
76337;BME280;65157;50.082;18.178;2023-06-22T11:32:09;99457.55;;;32.99;44.79
76337;BME280;65157;50.082;18.178;2023-06-22T11:34:35;99456.69;;;33.22;43.54
76337;BME280;65157;50.082;18.178;2023-06-22T11:37:02;99454.00;;;33.27;42.69
76337;BME280;65157;50.082;18.178;2023-06-22T11:39:29;99442.77;;;33.27;43.38
76337;BME280;65157;50.082;18.178;2023-06-22T11:41:55;99441.23;;;33.34;43.88
76337;BME280;65157;50.082;18.178;2023-06-22T11:44:22;99441.25;;;33.49;43.66
76337;BME280;65157;50.082;18.178;2023-06-22T11:46:48;99434.23;;;33.58;43.54
76337;BME280;65157;50.082;18.178;2023-06-22T11:49:15;99431.91;;;33.61;42.34
76337;BME280;65157;50.082;18.178;2023-06-22T11:51:42;99431.65;;;33.62;41.89
76337;BME280;65157;50.082;18.178;2023-06-22T11:54:09;99425.60;;;33.62;42.90
76337;BME280;65157;50.082;18.178;2023-06-22T11:56:35;99423.67;;;33.73;41.69
76337;BME280;65157;50.082;18.178;2023-06-22T11:59:02;99414.17;;;33.75;42.40
76337;BME280;65157;50.082;18.178;2023-06-22T12:01:28;99410.86;;;33.87;41.65
76337;BME280;65157;50.082;18.178;2023-06-22T12:03:55;99414.12;;;33.97;42.66
76337;BME280;65157;50.082;18.178;2023-06-22T12:06:22;99411.43;;;34.09;42.50
76337;BME280;65157;50.082;18.178;2023-06-22T12:08:48;99405.35;;;34.18;40.79
76337;BME280;65157;50.082;18.178;2023-06-22T12:11:15;99402.23;;;34.22;40.55
76337;BME280;65157;50.082;18.178;2023-06-22T12:13:42;99398.55;;;34.23;41.28
76337;BME280;65157;50.082;18.178;2023-06-22T12:16:08;99393.09;;;34.21;40.38
76337;BME280;65157;50.082;18.178;2023-06-22T12:18:35;99382.02;;;34.14;41.37
76337;BME280;65157;50.082;18.178;2023-06-22T12:21:02;99384.25;;;34.20;42.06
76337;BME280;65157;50.082;18.178;2023-06-22T12:23:28;99385.39;;;34.33;41.10
76337;BME280;65157;50.082;18.178;2023-06-22T12:25:55;99383.91;;;34.29;40.38
76337;BME280;65157;50.082;18.178;2023-06-22T12:28:22;99387.08;;;34.25;41.09
76337;BME280;65157;50.082;18.178;2023-06-22T12:30:48;99386.29;;;34.24;41.39
76337;BME280;65157;50.082;18.178;2023-06-22T12:33:15;99385.39;;;34.24;41.83
76337;BME280;65157;50.082;18.178;2023-06-22T12:35:42;99380.39;;;34.32;41.40
76337;BME280;65157;50.082;18.178;2023-06-22T12:38:08;99378.16;;;34.30;41.08
76337;BME280;65157;50.082;18.178;2023-06-22T12:40:35;99377.35;;;34.29;41.00
76337;BME280;65157;50.082;18.178;2023-06-22T12:43:02;99375.40;;;34.31;41.17
76337;BME280;65157;50.082;18.178;2023-06-22T12:45:28;99374.39;;;34.36;40.40
76337;BME280;65157;50.082;18.178;2023-06-22T12:47:55;99372.58;;;34.24;40.85
76337;BME280;65157;50.082;18.178;2023-06-22T12:50:22;99368.82;;;34.14;39.86
76337;BME280;65157;50.082;18.178;2023-06-22T12:52:48;99366.85;;;34.03;41.42